Terminal Aerodrome Forecast
Issued by NWS Billings, MT

Home | Current Version | Previous Version | Text Only | Print | Product List | Glossary On
Versions: 1 2 3 4 5 6 7 8 9 10 11 12 13 14 15 16 17 18 19 20 21 22 23 24 25 26 27 28
000
FTUS45 KBYZ 152328
TAFBIL
TAF
KBIL 152328Z 1600/1624 24011KT P6SM SCT100 OVC150
     FM160600 02008KT P6SM VCSH BKN080
     FM161000 04008KT 2SM -SN BR OVC015
     FM161400 04008KT 3/4SM -SN BR OVC010
     FM162000 03005KT P6SM OVC020=

USA.gov is the U.S. government's official web portal to all federal, state and local government web resources and services.